Time;durP1;ratioP1;P1;durP2;ratioP2;P2;SDS_P1;SDS_P2;PMS_P1;PMS_P2;Temp;Humidity;BMP_temperature;BMP_pressure;BME280_temperature;BME280_humidity;BME280_pressure;Samples;Min_cycle;Max_cycle;Signal;HPM_P1;HPM_P2
2023/03/10 00:02:21;;;;;;;65.20;32.75;;;0.60;99.90;;;;;;5043419;28;20036;-76
2023/03/10 00:04:51;;;;;;;69.47;34.30;;;0.70;99.90;;;;;;5074799;28;20386;-76
2023/03/10 00:07:17;;;;;;;75.57;37.70;;;0.80;99.90;;;;;;5058979;28;20041;-76
2023/03/10 00:09:43;;;;;;;68.73;34.23;;;0.90;99.90;;;;;;5058002;28;20442;-76
2023/03/10 00:12:09;;;;;;;71.53;35.57;;;0.80;99.90;;;;;;5055117;28;20169;-76
2023/03/10 00:14:34;;;;;;;73.90;37.57;;;0.70;99.90;;;;;;5075442;28;20040;-76
2023/03/10 00:17:00;;;;;;;73.67;37.53;;;0.80;99.90;;;;;;5056910;28;20097;-76
2023/03/10 00:19:26;;;;;;;68.57;35.63;;;0.80;99.90;;;;;;5074205;28;20037;-76
2023/03/10 00:21:52;;;;;;;66.63;35.13;;;0.80;99.90;;;;;;5075311;28;20198;-76
2023/03/10 00:24:18;;;;;;;76.47;37.03;;;0.80;99.90;;;;;;5052871;28;20079;-76
2023/03/10 00:26:46;;;;;;;73.07;37.40;;;0.80;99.90;;;;;;5059709;28;20045;-76
2023/03/10 00:29:12;;;;;;;70.73;37.13;;;0.70;99.90;;;;;;5072670;28;20082;-76
2023/03/10 00:31:38;;;;;;;76.60;37.50;;;1.60;99.90;;;;;;5086939;28;20036;-76
2023/03/10 00:34:04;;;;;;;67.47;35.30;;;0.80;99.90;;;;;;5068216;28;20098;-76
2023/03/10 00:36:31;;;;;;;60.87;33.80;;;0.80;99.90;;;;;;5060294;28;20457;-77
2023/03/10 00:39:01;;;;;;;57.07;31.77;;;0.80;99.90;;;;;;5071837;28;20036;-79
2023/03/10 00:41:34;;;;;;;59.67;33.23;;;0.80;99.90;;;;;;5054545;28;20127;-77
2023/03/10 00:44:01;;;;;;;59.20;32.57;;;1.10;99.90;;;;;;5069629;28;20032;-76
2023/03/10 00:46:28;;;;;;;61.43;34.27;;;0.80;99.90;;;;;;5061772;28;20037;-77
2023/03/10 00:48:55;;;;;;;62.40;32.87;;;0.80;99.90;;;;;;5072894;28;20054;-76
2023/03/10 00:51:22;;;;;;;56.80;31.10;;;1.20;99.90;;;;;;5075839;28;20118;-76
2023/03/10 00:53:48;;;;;;;61.10;32.53;;;0.80;99.90;;;;;;5069202;28;20044;-76
2023/03/10 00:56:20;;;;;;;54.27;30.20;;;0.90;99.90;;;;;;5048067;28;20140;-80
2023/03/10 00:58:49;;;;;;;56.17;30.47;;;0.80;99.90;;;;;;5067937;28;20051;-77
2023/03/10 01:01:22;;;;;;;59.30;30.80;;;0.90;99.90;;;;;;5071805;28;20140;-76
2023/03/10 01:03:50;;;;;;;53.33;28.67;;;0.90;99.90;;;;;;5052042;28;20114;-77
2023/03/10 01:06:16;;;;;;;44.07;25.13;;;0.90;99.90;;;;;;5058551;28;20041;-76
2023/03/10 01:08:41;;;;;;;40.03;22.17;;;0.90;99.90;;;;;;5065464;28;20063;-76
2023/03/10 01:11:07;;;;;;;40.47;22.83;;;0.90;99.90;;;;;;5071105;28;20032;-76
2023/03/10 01:13:33;;;;;;;40.33;22.30;;;0.90;99.90;;;;;;5070946;28;20044;-75
2023/03/10 01:15:59;;;;;;;37.00;21.33;;;1.00;99.90;;;;;;5052947;28;20040;-76
2023/03/10 01:18:25;;;;;;;39.83;22.20;;;0.90;99.90;;;;;;5035490;28;20079;-76
2023/03/10 01:20:51;;;;;;;40.53;21.73;;;1.50;99.90;;;;;;5071780;28;20044;-76
2023/03/10 01:23:22;;;;;;;38.67;21.40;;;1.00;99.90;;;;;;5070658;28;20098;-76
2023/03/10 01:25:48;;;;;;;38.60;21.88;;;1.00;99.90;;;;;;5071264;28;20128;-75
2023/03/10 01:28:13;;;;;;;39.87;22.17;;;1.00;99.90;;;;;;5053695;28;20151;-77
2023/03/10 01:30:39;;;;;;;38.07;21.93;;;1.00;99.90;;;;;;5068954;28;20066;-76
2023/03/10 01:33:06;;;;;;;37.43;21.47;;;0.90;99.90;;;;;;5069970;28;20143;-76
2023/03/10 01:35:32;;;;;;;34.30;20.00;;;1.00;99.90;;;;;;5070883;28;20560;-77
2023/03/10 01:37:57;;;;;;;39.33;21.33;;;1.00;99.90;;;;;;5054851;28;20075;-76
2023/03/10 01:40:25;;;;;;;35.00;20.07;;;0.90;99.90;;;;;;5065004;28;20116;-76
2023/03/10 01:42:51;;;;;;;36.00;20.80;;;1.00;99.90;;;;;;5069531;28;20074;-76
2023/03/10 01:45:17;;;;;;;36.13;20.57;;;1.00;99.90;;;;;;5054367;28;20033;-76
2023/03/10 01:47:43;;;;;;;37.67;22.00;;;1.00;99.90;;;;;;5029380;28;20044;-80
2023/03/10 01:50:13;;;;;;;34.97;19.60;;;1.00;99.90;;;;;;5068555;28;20339;-76
2023/03/10 01:52:42;;;;;;;34.07;20.13;;;1.00;99.90;;;;;;5047283;28;20044;-76
2023/03/10 01:55:15;;;;;;;34.83;20.10;;;1.00;99.90;;;;;;5035977;28;20474;-76
2023/03/10 01:57:51;;;;;;;34.87;19.07;;;0.90;99.90;;;;;;5036850;28;20045;-77
2023/03/10 02:00:18;;;;;;;36.13;20.67;;;0.90;99.90;;;;;;5068703;28;20047;-76
2023/03/10 02:03:16;;;;;;;35.97;21.17;;;1.00;99.90;;;;;;5069470;28;20074;-76
2023/03/10 02:05:50;;;;;;;33.67;19.90;;;1.00;99.90;;;;;;5069862;28;20056;-76
2023/03/10 02:08:17;;;;;;;35.20;20.10;;;1.90;99.90;;;;;;5053999;28;20224;-76
2023/03/10 02:10:44;;;;;;;36.20;20.83;;;1.60;99.90;;;;;;5050235;28;20052;-76
2023/03/10 02:13:10;;;;;;;38.63;22.43;;;1.00;99.90;;;;;;5068062;28;20055;-75
2023/03/10 02:15:36;;;;;;;36.77;20.40;;;1.30;99.90;;;;;;5070106;28;20219;-76
2023/03/10 02:18:04;;;;;;;36.10;20.73;;;0.90;99.90;;;;;;5053375;28;20051;-76
2023/03/10 02:20:30;;;;;;;38.27;21.90;;;1.00;99.90;;;;;;5070356;28;20127;-76
2023/03/10 02:22:56;;;;;;;34.67;20.37;;;0.90;99.90;;;;;;5068109;28;20461;-76
2023/03/10 02:25:40;;;;;;;36.83;21.53;;;1.00;99.90;;;;;;5070314;28;20117;-76
2023/03/10 02:28:06;;;;;;;35.57;21.20;;;0.90;99.90;;;;;;5053188;28;20045;-76
2023/03/10 02:30:42;;;;;;;32.77;19.67;;;0.90;99.90;;;;;;5068185;28;20040;-76
2023/03/10 02:33:18;;;;;;;33.70;19.97;;;1.30;99.90;;;;;;5048986;28;20044;-75
2023/03/10 02:35:45;;;;;;;30.57;19.23;;;0.90;99.90;;;;;;5069140;28;20040;-76
2023/03/10 02:38:11;;;;;;;31.33;17.83;;;1.30;99.90;;;;;;5052511;28;20036;-76
2023/03/10 02:40:51;;;;;;;32.97;19.97;;;0.80;99.90;;;;;;5069243;28;20382;-76
2023/03/10 02:43:29;;;;;;;32.10;18.53;;;0.70;99.90;;;;;;5051141;28;20037;-76
2023/03/10 02:45:58;;;;;;;33.90;20.20;;;0.70;99.90;;;;;;5070540;28;20037;-76
2023/03/10 02:48:29;;;;;;;34.03;19.50;;;0.70;99.90;;;;;;5049371;28;20577;-78
2023/03/10 02:50:57;;;;;;;33.63;19.65;;;0.70;99.90;;;;;;5065579;28;20110;-77
2023/03/10 02:53:26;;;;;;;34.40;19.80;;;0.70;99.90;;;;;;5034259;28;20048;-77
2023/03/10 02:55:52;;;;;;;37.60;20.93;;;0.70;99.90;;;;;;5050316;28;20051;-77
2023/03/10 02:58:20;;;;;;;33.20;19.53;;;0.70;99.90;;;;;;5052958;28;20113;-77
2023/03/10 03:00:46;;;;;;;38.53;21.93;;;0.70;99.90;;;;;;5068958;28;20390;-76
2023/03/10 03:03:13;;;;;;;40.00;22.13;;;0.70;99.90;;;;;;5067581;28;20060;-77
2023/03/10 03:05:40;;;;;;;43.70;24.17;;;0.70;99.90;;;;;;5066036;28;20044;-76
2023/03/10 03:08:06;;;;;;;41.67;24.03;;;0.70;99.90;;;;;;5052149;28;20097;-77
2023/03/10 03:10:33;;;;;;;43.00;23.63;;;0.70;99.90;;;;;;5069417;28;20078;-76
2023/03/10 03:12:59;;;;;;;42.93;24.30;;;0.70;99.90;;;;;;5049832;28;20064;-77
2023/03/10 03:15:25;;;;;;;47.67;25.80;;;0.70;99.90;;;;;;5051514;28;20054;-77
2023/03/10 03:17:53;;;;;;;46.30;25.73;;;0.70;99.90;;;;;;5034365;28;20044;-77
2023/03/10 03:20:20;;;;;;;46.67;26.53;;;0.70;99.90;;;;;;5047862;28;20709;-77
2023/03/10 03:22:47;;;;;;;55.00;29.70;;;0.70;99.90;;;;;;5068221;28;20036;-77
2023/03/10 03:25:16;;;;;;;54.97;29.00;;;0.70;99.90;;;;;;5068895;28;20053;-77
2023/03/10 03:27:42;;;;;;;53.53;28.43;;;0.60;99.90;;;;;;5051979;28;20051;-77
2023/03/10 03:30:13;;;;;;;53.10;28.20;;;1.20;99.90;;;;;;5073073;28;20039;-77
2023/03/10 03:32:39;;;;;;;46.45;27.70;;;0.70;99.90;;;;;;5085777;28;20428;-76
2023/03/10 03:35:10;;;;;;;53.40;28.10;;;1.40;99.90;;;;;;5088940;28;20040;-78
2023/03/10 03:37:36;;;;;;;47.72;26.80;;;0.70;99.90;;;;;;5060570;28;20040;-76
2023/03/10 03:40:11;;;;;;;51.57;27.40;;;0.70;99.90;;;;;;5068285;28;20044;-77
2023/03/10 03:42:40;;;;;;;46.77;26.83;;;0.70;99.90;;;;;;5050308;28;20044;-77
2023/03/10 03:45:07;;;;;;;48.60;26.30;;;0.60;99.90;;;;;;5070386;28;20052;-77
2023/03/10 03:47:33;;;;;;;54.67;29.73;;;0.70;99.90;;;;;;5044773;28;20063;-77
2023/03/10 03:49:59;;;;;;;55.77;29.03;;;0.60;99.90;;;;;;5068275;28;20048;-76
2023/03/10 03:52:25;;;;;;;56.33;29.53;;;0.70;99.90;;;;;;5067966;28;20120;-76
2023/03/10 03:54:51;;;;;;;58.07;29.83;;;0.60;99.90;;;;;;5055957;28;20036;-76
2023/03/10 03:57:16;;;;;;;52.43;29.07;;;0.70;99.90;;;;;;5072580;28;20044;-76
2023/03/10 03:59:42;;;;;;;50.70;27.37;;;0.60;99.90;;;;;;5052096;28;20126;-76
2023/03/10 04:02:08;;;;;;;54.40;28.17;;;0.50;99.90;;;;;;5066923;28;20109;-78
2023/03/10 04:04:33;;;;;;;54.20;28.10;;;0.50;99.90;;;;;;5068590;28;20047;-77
2023/03/10 04:07:00;;;;;;;55.67;29.50;;;0.50;99.90;;;;;;5052733;28;20044;-77
2023/03/10 04:09:26;;;;;;;50.93;27.70;;;0.50;99.90;;;;;;5066108;28;20040;-76
2023/03/10 04:11:52;;;;;;;56.70;29.47;;;0.90;99.90;;;;;;5068490;28;20131;-77
2023/03/10 04:14:18;;;;;;;53.00;28.47;;;0.50;99.90;;;;;;5067582;28;20056;-79
2023/03/10 04:16:43;;;;;;;55.93;29.13;;;0.40;99.90;;;;;;5050334;28;20040;-77
2023/03/10 04:19:09;;;;;;;54.37;29.40;;;0.40;99.90;;;;;;5085685;28;20050;-76
2023/03/10 04:21:35;;;;;;;55.27;28.87;;;0.60;99.90;;;;;;5071051;28;20063;-77
2023/03/10 04:24:01;;;;;;;53.90;28.47;;;0.50;99.90;;;;;;5067464;28;20135;-77
2023/03/10 04:26:28;;;;;;;54.97;29.27;;;0.40;99.90;;;;;;5021840;28;20044;-77
2023/03/10 04:28:55;;;;;;;60.00;29.47;;;0.50;99.90;;;;;;5065654;28;20059;-77
2023/03/10 04:31:21;;;;;;;60.23;29.57;;;0.40;99.90;;;;;;5068551;28;20029;-78
2023/03/10 04:33:47;;;;;;;61.47;29.93;;;0.40;99.90;;;;;;5071359;28;20056;-77
2023/03/10 04:36:12;;;;;;;60.73;30.60;;;0.40;99.90;;;;;;5062890;28;20168;-78
2023/03/10 04:38:39;;;;;;;63.20;31.33;;;0.40;99.90;;;;;;5065440;28;20048;-78
2023/03/10 04:41:04;;;;;;;69.87;32.10;;;0.40;99.90;;;;;;5070936;28;20366;-77
2023/03/10 04:43:31;;;;;;;72.17;34.10;;;0.30;99.90;;;;;;5067353;28;20040;-77
2023/03/10 04:45:57;;;;;;;65.73;33.63;;;0.80;99.90;;;;;;5073300;28;20044;-77
2023/03/10 04:48:23;;;;;;;74.07;34.70;;;0.30;99.90;;;;;;5051497;28;20062;-77
2023/03/10 04:51:07;;;;;;;88.93;38.03;;;0.70;99.90;;;;;;5049297;28;20045;-78
2023/03/10 04:53:34;;;;;;;96.93;39.87;;;0.30;99.90;;;;;;5060135;28;20461;-77
2023/03/10 04:56:03;;;;;;;99.77;41.73;;;0.30;99.90;;;;;;5053801;28;20055;-77
2023/03/10 04:58:29;;;;;;;103.90;43.50;;;0.30;99.90;;;;;;5055335;28;20045;-77
2023/03/10 05:00:55;;;;;;;114.87;47.10;;;0.50;99.90;;;;;;5071547;28;20365;-77
2023/03/10 05:03:21;;;;;;;119.70;47.70;;;0.20;99.90;;;;;;5069874;28;20048;-77
2023/03/10 05:05:46;;;;;;;122.53;50.03;;;0.30;99.90;;;;;;5071329;28;20411;-77
2023/03/10 05:08:12;;;;;;;127.43;51.00;;;0.30;99.90;;;;;;5054337;28;20122;-77
2023/03/10 05:10:43;;;;;;;136.70;51.97;;;0.70;99.90;;;;;;5071284;28;20109;-76
2023/03/10 05:13:12;;;;;;;115.57;43.83;;;0.60;99.90;;;;;;5052384;28;20045;-77
2023/03/10 05:15:39;;;;;;;132.23;53.90;;;0.30;99.90;;;;;;5070353;28;20041;-78
2023/03/10 05:18:06;;;;;;;126.83;54.37;;;0.30;99.90;;;;;;5052382;28;20123;-79
2023/03/10 05:20:32;;;;;;;118.23;51.97;;;0.30;99.90;;;;;;5068060;28;20083;-77
2023/03/10 05:22:57;;;;;;;128.67;54.57;;;0.30;99.90;;;;;;5067705;28;20549;-77
2023/03/10 05:25:23;;;;;;;119.07;52.20;;;0.30;99.90;;;;;;5067117;28;20045;-77
2023/03/10 05:27:49;;;;;;;112.37;48.63;;;0.30;99.90;;;;;;5054167;28;20072;-78
2023/03/10 05:30:17;;;;;;;115.07;50.53;;;0.30;99.90;;;;;;5074157;28;20047;-77
2023/03/10 05:32:44;;;;;;;125.67;53.40;;;0.30;99.90;;;;;;5069691;28;20040;-77
2023/03/10 05:35:11;;;;;;;135.20;54.53;;;0.90;99.90;;;;;;5070294;28;20040;-77
2023/03/10 05:37:39;;;;;;;116.33;48.13;;;0.30;99.90;;;;;;5051432;28;20050;-77
2023/03/10 05:40:18;;;;;;;116.97;49.70;;;0.20;99.90;;;;;;5069774;28;20068;-77
2023/03/10 05:42:44;;;;;;;111.10;47.03;;;0.70;99.90;;;;;;5050960;28;20585;-77
2023/03/10 05:45:10;;;;;;;111.07;45.70;;;0.30;99.90;;;;;;5052872;28;20390;-77
2023/03/10 05:47:36;;;;;;;103.37;44.60;;;0.20;99.90;;;;;;5047303;28;20433;-78
2023/03/10 05:50:02;;;;;;;106.50;47.60;;;0.20;99.90;;;;;;5067809;28;20041;-78
2023/03/10 05:52:27;;;;;;;99.50;42.63;;;0.20;99.90;;;;;;5069493;28;20429;-77
2023/03/10 05:54:53;;;;;;;100.13;40.97;;;0.20;99.90;;;;;;5057119;28;20386;-77
2023/03/10 05:57:19;;;;;;;80.67;38.77;;;0.10;99.90;;;;;;5034407;28;20040;-77
2023/03/10 05:59:44;;;;;;;91.87;40.97;;;0.20;99.90;;;;;;5067802;28;20036;-78
2023/03/10 06:02:10;;;;;;;85.13;37.43;;;0.10;99.90;;;;;;5066193;28;20032;-78
2023/03/10 06:04:36;;;;;;;90.13;38.40;;;0.20;99.90;;;;;;5067970;28;20361;-77
2023/03/10 06:07:02;;;;;;;81.60;37.33;;;0.20;99.90;;;;;;5054019;28;20068;-74
2023/03/10 06:09:29;;;;;;;82.17;37.63;;;0.10;99.90;;;;;;5068651;28;20048;-77
2023/03/10 06:11:56;;;;;;;79.53;34.57;;;0.20;99.90;;;;;;5070276;28;20079;-77
2023/03/10 06:14:22;;;;;;;71.77;33.40;;;0.20;99.90;;;;;;5060146;28;20041;-77
2023/03/10 06:16:50;;;;;;;73.30;33.23;;;0.10;99.90;;;;;;5051025;28;20094;-77
2023/03/10 06:19:23;;;;;;;76.03;33.07;;;0.20;99.90;;;;;;5047843;28;20434;-79
2023/03/10 06:21:49;;;;;;;73.63;31.87;;;0.10;99.90;;;;;;5069930;28;20048;-77
2023/03/10 06:24:15;;;;;;;73.83;31.63;;;0.40;99.90;;;;;;5034986;28;20047;-78
2023/03/10 06:26:41;;;;;;;70.80;32.23;;;0.20;99.90;;;;;;5056506;28;20040;-77
2023/03/10 06:29:06;;;;;;;72.90;33.10;;;0.30;99.90;;;;;;5050381;28;20045;-76
2023/03/10 06:31:33;;;;;;;77.40;33.97;;;0.10;99.90;;;;;;5081577;28;20355;-78
2023/03/10 06:33:59;;;;;;;79.27;33.13;;;0.80;99.90;;;;;;5088093;28;20093;-77
2023/03/10 06:36:26;;;;;;;76.43;33.73;;;0.20;99.90;;;;;;5077885;28;20575;-77
2023/03/10 06:38:53;;;;;;;91.60;35.70;;;0.50;99.90;;;;;;5079348;28;20370;-77
2023/03/10 06:41:20;;;;;;;93.20;37.20;;;0.00;99.90;;;;;;5069102;28;20040;-78
2023/03/10 06:43:46;;;;;;;93.37;36.27;;;0.00;99.90;;;;;;5069099;28;20047;-76
2023/03/10 06:46:12;;;;;;;95.83;37.87;;;0.00;99.90;;;;;;5059213;28;20048;-77
2023/03/10 06:48:39;;;;;;;88.40;35.57;;;0.00;99.90;;;;;;5060822;28;20055;-77
2023/03/10 06:51:12;;;;;;;88.97;37.13;;;0.00;99.90;;;;;;5079934;28;20501;-77
2023/03/10 06:53:38;;;;;;;103.33;38.27;;;0.00;99.90;;;;;;5048444;28;20458;-79
2023/03/10 06:56:06;;;;;;;103.50;39.77;;;0.00;99.90;;;;;;5066020;28;20445;-82
2023/03/10 06:58:34;;;;;;;98.37;38.73;;;0.00;99.90;;;;;;5059317;28;20398;-76
2023/03/10 07:01:00;;;;;;;99.70;38.47;;;0.00;99.90;;;;;;5068906;28;20032;-79
2023/03/10 07:03:27;;;;;;;88.67;35.43;;;0.00;99.90;;;;;;5063284;28;20041;-78
2023/03/10 07:05:54;;;;;;;112.53;37.73;;;0.00;99.90;;;;;;5067353;28;20356;-79
2023/03/10 07:08:20;;;;;;;92.50;37.70;;;0.00;99.90;;;;;;5052634;28;20048;-78
2023/03/10 07:10:46;;;;;;;91.63;36.40;;;0.00;99.90;;;;;;5065036;28;20063;-81
2023/03/10 07:13:16;;;;;;;101.00;37.97;;;0.00;99.90;;;;;;5062317;28;20048;-78
2023/03/10 07:15:42;;;;;;;99.10;38.37;;;0.00;99.90;;;;;;5065995;28;20059;-77
2023/03/10 07:18:08;;;;;;;99.20;37.43;;;0.50;99.90;;;;;;5049798;28;20071;-77
2023/03/10 07:20:34;;;;;;;105.90;37.80;;;0.00;99.90;;;;;;5048408;28;20470;-82
2023/03/10 07:22:59;;;;;;;102.70;38.53;;;0.40;99.90;;;;;;5055222;28;20045;-78
2023/03/10 07:25:26;;;;;;;87.97;34.67;;;0.00;99.90;;;;;;5047284;28;20052;-78
2023/03/10 07:27:52;;;;;;;88.07;34.73;;;0.10;99.90;;;;;;5049492;28;20051;-84
2023/03/10 07:30:18;;;;;;;88.77;35.20;;;0.00;99.90;;;;;;5071579;28;20362;-79
2023/03/10 07:32:43;;;;;;;86.60;34.20;;;0.10;99.90;;;;;;5061665;28;20614;-78
2023/03/10 07:35:09;;;;;;;94.87;34.97;;;0.20;99.90;;;;;;5065686;28;20044;-78
2023/03/10 07:37:39;;;;;;;76.33;31.70;;;0.00;99.90;;;;;;5032095;28;20430;-79
2023/03/10 07:40:08;;;;;;;76.93;32.80;;;0.10;99.90;;;;;;5065062;28;20611;-77
2023/03/10 07:42:34;;;;;;;86.47;33.00;;;0.10;99.90;;;;;;5062369;28;20064;-77
2023/03/10 07:44:59;;;;;;;82.73;33.40;;;0.10;99.90;;;;;;5065800;28;20835;-85
2023/03/10 07:47:25;;;;;;;78.07;33.50;;;0.20;99.90;;;;;;5043698;28;20052;-76
2023/03/10 07:49:51;;;;;;;76.43;32.83;;;0.20;99.90;;;;;;5065517;28;20510;-78
2023/03/10 07:52:19;;;;;;;81.03;33.50;;;0.20;99.90;;;;;;5030054;28;20040;-78
2023/03/10 07:54:45;;;;;;;72.90;30.77;;;0.20;99.90;;;;;;5073917;28;20044;-77
2023/03/10 07:57:12;;;;;;;74.03;32.33;;;0.20;99.90;;;;;;5048969;28;20089;-80
2023/03/10 07:59:39;;;;;;;73.07;30.97;;;0.90;99.90;;;;;;5049852;28;20079;-77
2023/03/10 08:02:05;;;;;;;84.97;32.67;;;0.30;99.90;;;;;;5044907;28;20102;-76
2023/03/10 08:04:30;;;;;;;81.17;33.63;;;0.30;99.90;;;;;;5077436;28;20040;-78
2023/03/10 08:06:58;;;;;;;84.53;34.90;;;0.30;99.90;;;;;;5036303;28;20040;-77
2023/03/10 08:09:23;;;;;;;82.60;35.37;;;0.70;99.90;;;;;;5060919;28;20044;-80
2023/03/10 08:11:49;;;;;;;73.53;33.30;;;0.30;99.90;;;;;;5069548;28;20036;-77
2023/03/10 08:14:17;;;;;;;73.20;32.57;;;0.30;99.90;;;;;;5071900;28;20047;-81
2023/03/10 08:16:43;;;;;;;78.30;34.40;;;0.20;99.90;;;;;;5054696;28;20573;-77
2023/03/10 08:19:09;;;;;;;74.60;32.77;;;0.20;99.90;;;;;;5067019;28;20036;-78
2023/03/10 08:21:35;;;;;;;63.40;31.10;;;0.30;99.90;;;;;;5068758;28;20063;-80
2023/03/10 08:24:00;;;;;;;69.67;32.17;;;0.20;99.90;;;;;;5068199;28;20040;-79
2023/03/10 08:26:26;;;;;;;66.43;30.70;;;0.30;99.90;;;;;;5056751;28;20606;-84
2023/03/10 08:28:52;;;;;;;70.03;31.10;;;0.40;99.90;;;;;;5061244;28;20477;-82
2023/03/10 08:31:20;;;;;;;82.77;32.93;;;0.90;99.90;;;;;;5046809;28;20045;-78
2023/03/10 08:33:46;;;;;;;76.90;33.30;;;0.90;99.90;;;;;;5066728;28;20390;-77
2023/03/10 08:36:18;;;;;;;79.63;34.07;;;0.20;99.90;;;;;;5059199;28;20049;-78
2023/03/10 08:38:44;;;;;;;60.03;28.97;;;0.40;99.90;;;;;;5044565;28;20046;-79
2023/03/10 08:41:30;;;;;;;65.97;30.93;;;0.30;99.90;;;;;;5067327;28;20028;-80
2023/03/10 08:43:58;;;;;;;72.03;33.27;;;0.30;99.90;;;;;;5050914;28;20053;-78
2023/03/10 08:46:25;;;;;;;64.43;31.43;;;0.50;99.90;;;;;;5034156;28;20487;-78
2023/03/10 08:48:52;;;;;;;68.63;32.77;;;0.40;99.90;;;;;;5052559;28;20048;-79
2023/03/10 08:51:18;;;;;;;83.93;35.03;;;1.00;99.90;;;;;;5060955;28;20041;-78
2023/03/10 08:53:46;;;;;;;77.27;36.07;;;0.40;99.90;;;;;;5049638;28;20471;-81
2023/03/10 08:56:13;;;;;;;70.77;33.90;;;0.30;99.90;;;;;;5039889;28;20600;-79
2023/03/10 08:58:39;;;;;;;71.17;34.93;;;0.30;99.90;;;;;;5060410;28;20044;-78
2023/03/10 09:01:05;;;;;;;75.60;35.37;;;0.40;99.90;;;;;;5067385;28;20480;-78
2023/03/10 09:03:34;;;;;;;62.33;31.73;;;1.00;99.90;;;;;;5067062;28;20097;-78
2023/03/10 09:05:59;;;;;;;78.13;35.23;;;0.70;99.90;;;;;;5067778;28;20036;-78
2023/03/10 09:08:25;;;;;;;79.70;36.80;;;0.40;99.90;;;;;;5052404;28;20494;-80
2023/03/10 09:10:51;;;;;;;78.70;34.13;;;1.00;99.90;;;;;;5068297;28;20070;-78
2023/03/10 09:13:16;;;;;;;77.70;36.13;;;0.40;99.90;;;;;;5065993;28;20032;-78
2023/03/10 09:15:42;;;;;;;82.70;38.00;;;1.20;99.90;;;;;;5066010;28;20245;-78
2023/03/10 09:18:09;;;;;;;76.53;35.07;;;0.60;99.90;;;;;;5056205;28;20059;-78
2023/03/10 09:20:37;;;;;;;62.27;31.90;;;0.60;99.90;;;;;;5068824;28;20044;-78
2023/03/10 09:23:03;;;;;;;67.93;33.40;;;1.10;99.90;;;;;;5065650;28;20048;-78
2023/03/10 09:25:29;;;;;;;67.30;32.73;;;0.50;99.90;;;;;;5049503;28;20040;-78
2023/03/10 09:27:55;;;;;;;65.60;31.27;;;0.50;99.90;;;;;;5051065;28;20048;-79
2023/03/10 09:30:21;;;;;;;69.97;34.27;;;0.50;99.90;;;;;;5052059;28;20381;-78
2023/03/10 09:32:47;;;;;;;66.23;32.50;;;0.40;99.90;;;;;;5066567;28;20459;-79
2023/03/10 09:35:12;;;;;;;68.83;32.27;;;0.50;99.90;;;;;;5063550;28;20946;-79
2023/03/10 09:37:38;;;;;;;62.10;29.00;;;1.00;99.90;;;;;;5052746;28;20049;-78
2023/03/10 09:40:06;;;;;;;60.57;29.50;;;0.50;99.90;;;;;;5067081;28;20076;-78
2023/03/10 09:42:37;;;;;;;65.57;29.60;;;0.40;99.90;;;;;;5048428;28;20047;-79
2023/03/10 09:45:22;;;;;;;46.95;22.52;;;0.50;99.90;;;;;;5065989;28;20048;-79
2023/03/10 09:48:02;;;;;;;54.53;26.77;;;0.50;99.90;;;;;;5048002;28;20424;-80
2023/03/10 09:50:35;;;;;;;54.70;28.30;;;0.40;99.90;;;;;;5060670;28;20106;-79
2023/03/10 09:53:06;;;;;;;59.37;29.47;;;0.50;99.90;;;;;;5048502;28;20704;-79
2023/03/10 09:55:43;;;;;;;62.08;29.85;;;0.50;99.90;;;;;;5063772;28;20123;-78
2023/03/10 09:58:38;;;;;;;60.07;29.67;;;0.50;99.90;;;;;;5051029;28;20197;-79
2023/03/10 10:01:10;;;;;;;67.73;30.87;;;0.50;99.90;;;;;;5060941;28;20044;-79
2023/03/10 10:03:41;;;;;;;62.93;29.20;;;0.80;99.90;;;;;;5066752;28;20076;-80
2023/03/10 10:06:14;;;;;;;62.17;29.93;;;0.50;99.90;;;;;;5059083;28;20091;-80
2023/03/10 10:08:45;;;;;;;65.67;31.07;;;0.80;99.90;;;;;;5061985;28;20055;-80
2023/03/10 10:11:16;;;;;;;50.92;25.33;;;1.00;99.90;;;;;;5065337;28;20049;-80
2023/03/10 10:13:42;;;;;;;48.72;23.60;;;1.10;99.90;;;;;;5047076;28;20133;-79
2023/03/10 10:16:36;;;;;;;62.80;31.03;;;0.70;99.90;;;;;;5059043;28;20553;-79
2023/03/10 10:19:21;;;;;;;63.10;33.13;;;0.50;99.90;;;;;;5062597;28;20443;-81
2023/03/10 10:22:08;;;;;;;71.73;34.10;;;0.60;99.90;;;;;;5064074;28;20088;-79
2023/03/10 10:24:34;;;;;;;63.70;32.77;;;0.60;99.90;;;;;;5063750;28;20076;-79
2023/03/10 10:26:59;;;;;;;67.93;32.70;;;0.80;99.90;;;;;;5050089;28;20485;-79
2023/03/10 10:29:35;;;;;;;57.17;30.23;;;0.60;99.90;;;;;;5064408;28;20047;-79
2023/03/10 10:32:12;;;;;;;73.67;34.47;;;0.50;99.90;;;;;;5069291;28;20076;-79
2023/03/10 10:34:44;;;;;;;73.57;35.00;;;1.40;99.90;;;;;;5048528;28;20545;-79
2023/03/10 10:37:29;;;;;;;68.83;34.10;;;0.60;99.90;;;;;;5050992;28;20043;-79
2023/03/10 10:39:57;;;;;;;69.57;34.20;;;0.50;99.90;;;;;;5064411;28;20075;-81
2023/03/10 10:42:29;;;;;;;66.43;32.57;;;1.10;99.90;;;;;;5047275;28;20508;-79
2023/03/10 10:45:04;;;;;;;66.07;32.60;;;0.60;99.90;;;;;;5049503;28;20040;-80
2023/03/10 10:47:48;;;;;;;69.23;34.40;;;0.60;99.90;;;;;;5015197;28;20049;-80
2023/03/10 10:50:23;;;;;;;71.47;33.07;;;0.60;99.90;;;;;;5030746;28;20068;-79
2023/03/10 10:52:52;;;;;;;70.93;34.63;;;0.60;99.90;;;;;;5062959;28;20045;-78
2023/03/10 10:55:34;;;;;;;68.70;33.77;;;0.60;99.90;;;;;;5047612;28;20108;-79
2023/03/10 10:58:03;;;;;;;74.13;35.27;;;0.90;99.90;;;;;;5048655;28;20088;-80
2023/03/10 11:00:37;;;;;;;71.73;34.73;;;0.60;99.90;;;;;;5063606;28;20070;-79
2023/03/10 11:03:33;;;;;;;65.37;31.63;;;0.70;99.90;;;;;;5047091;28;20048;-79
2023/03/10 11:06:01;;;;;;;70.77;33.40;;;0.60;99.90;;;;;;5049964;28;20505;-79
2023/03/10 11:08:36;;;;;;;69.30;33.77;;;0.60;99.90;;;;;;5046829;28;20052;-80
2023/03/10 11:11:28;;;;;;;74.13;33.17;;;0.50;99.90;;;;;;5044285;28;20045;-79
2023/03/10 11:14:15;;;;;;;71.10;34.00;;;1.20;99.90;;;;;;5045795;28;20045;-79
2023/03/10 11:17:07;;;;;;;68.60;34.17;;;0.50;99.90;;;;;;5049479;28;20469;-79
2023/03/10 11:19:41;;;;;;;80.20;35.57;;;0.70;99.90;;;;;;5041257;28;20044;-78
2023/03/10 11:22:37;;;;;;;75.27;34.27;;;0.50;99.90;;;;;;5063102;28;20043;-78
2023/03/10 11:25:31;;;;;;;72.13;35.43;;;1.20;99.90;;;;;;5064542;28;20067;-78
2023/03/10 11:27:56;;;;;;;80.20;38.00;;;0.40;99.90;;;;;;5052540;28;20048;-80
2023/03/10 11:30:34;;;;;;;79.70;38.03;;;0.40;99.90;;;;;;5067554;28;20049;-79
2023/03/10 11:33:19;;;;;;;83.23;38.50;;;0.40;99.90;;;;;;5067241;28;20056;-77
2023/03/10 11:35:52;;;;;;;87.50;39.43;;;0.40;99.90;;;;;;5061452;28;20517;-78
2023/03/10 11:38:21;;;;;;;84.80;39.77;;;0.80;99.90;;;;;;5053325;28;20044;-78
2023/03/10 11:40:55;;;;;;;90.10;40.80;;;0.50;99.90;;;;;;5068861;28;20055;-79
2023/03/10 11:43:42;;;;;;;87.63;39.20;;;0.50;99.90;;;;;;5061140;28;20067;-78
2023/03/10 11:46:31;;;;;;;76.37;37.67;;;0.50;99.90;;;;;;5060672;28;20074;-78
2023/03/10 11:49:14;;;;;;;80.03;38.17;;;0.60;99.90;;;;;;5058612;28;20050;-78
2023/03/10 11:51:44;;;;;;;86.83;38.37;;;0.50;99.90;;;;;;5068630;28;20410;-78
2023/03/10 11:54:21;;;;;;;87.00;40.97;;;1.20;99.90;;;;;;5065458;28;20040;-78
2023/03/10 11:56:50;;;;;;;81.43;38.30;;;0.70;99.90;;;;;;5035348;28;20073;-78
2023/03/10 11:59:25;;;;;;;90.30;40.30;;;0.60;99.90;;;;;;5066869;28;20436;-78
2023/03/10 12:01:59;;;;;;;92.17;41.80;;;0.80;99.90;;;;;;5068679;28;20036;-77
2023/03/10 12:04:42;;;;;;;87.40;41.80;;;0.70;99.90;;;;;;5066867;28;20049;-80
2023/03/10 12:07:22;;;;;;;86.07;39.97;;;0.90;99.90;;;;;;5051655;28;20048;-78
2023/03/10 12:09:56;;;;;;;90.07;40.47;;;0.80;99.90;;;;;;5067403;28;20061;-77
2023/03/10 12:12:29;;;;;;;76.03;38.47;;;0.80;99.90;;;;;;5068744;28;20049;-78
2023/03/10 12:14:59;;;;;;;76.77;37.63;;;0.80;99.90;;;;;;5066236;28;20047;-78
2023/03/10 12:17:24;;;;;;;80.67;38.67;;;0.90;99.90;;;;;;5051149;28;20044;-78
2023/03/10 12:20:21;;;;;;;77.03;38.63;;;0.80;99.90;;;;;;5077533;28;20054;-78
2023/03/10 12:22:52;;;;;;;88.07;40.07;;;0.80;99.90;;;;;;5068151;28;20179;-77
2023/03/10 12:25:27;;;;;;;91.43;39.92;;;0.90;99.90;;;;;;5069128;28;20138;-78
2023/03/10 12:28:15;;;;;;;85.60;39.40;;;0.80;99.90;;;;;;5050358;28;20044;-80
2023/03/10 12:30:46;;;;;;;91.43;41.20;;;0.80;99.90;;;;;;5063090;28;20043;-78
2023/03/10 12:33:30;;;;;;;64.93;32.05;;;0.80;99.90;;;;;;5086272;28;20217;-77
2023/03/10 12:36:04;;;;;;;88.77;41.47;;;0.90;99.90;;;;;;5088683;28;20127;-77
2023/03/10 12:38:41;;;;;;;88.13;39.50;;;0.90;99.90;;;;;;5022335;28;20457;-78
2023/03/10 12:41:07;;;;;;;72.03;37.33;;;0.80;99.90;;;;;;5050366;28;20045;-77
2023/03/10 12:43:43;;;;;;;84.77;39.87;;;0.90;99.90;;;;;;5067930;28;20106;-77
2023/03/10 12:46:18;;;;;;;78.30;38.23;;;0.90;99.90;;;;;;5041415;28;20040;-80
2023/03/10 12:48:53;;;;;;;87.83;39.23;;;0.90;99.90;;;;;;5037900;28;20531;-76